createdAt,value
2019-03-22T00:00:30.012Z,97.60
2019-03-22T00:02:59.331Z,97.70
2019-03-22T00:05:28.556Z,97.70
2019-03-22T00:07:57.814Z,97.50
2019-03-22T00:10:27.180Z,97.50
2019-03-22T00:12:57.102Z,97.50
2019-03-22T00:15:26.575Z,97.30
2019-03-22T00:17:56.314Z,97.20
2019-03-22T00:20:25.747Z,97.20
2019-03-22T00:22:55.079Z,96.80
2019-03-22T00:25:24.891Z,96.80
2019-03-22T00:27:54.270Z,96.80
2019-03-22T00:30:23.637Z,96.60
2019-03-22T00:32:54.159Z,97.00
2019-03-22T00:35:23.745Z,96.60
2019-03-22T00:37:53.110Z,96.70
2019-03-22T00:40:22.426Z,96.80
2019-03-22T00:42:51.926Z,96.80
2019-03-22T00:45:21.366Z,96.40
2019-03-22T00:47:50.736Z,96.30
2019-03-22T00:50:20.044Z,96.20
2019-03-22T00:52:50.453Z,96.00
2019-03-22T00:55:19.695Z,95.90
2019-03-22T00:57:49.059Z,95.80
2019-03-22T01:00:18.659Z,95.80
2019-03-22T01:02:48.099Z,95.80
2019-03-22T01:05:17.431Z,95.90
2019-03-22T01:07:46.738Z,95.80
2019-03-22T01:10:16.479Z,96.10
2019-03-22T01:12:45.873Z,95.80
2019-03-22T01:15:16.118Z,95.80
2019-03-22T01:17:45.338Z,95.60
2019-03-22T01:20:14.886Z,95.60
2019-03-22T01:22:44.215Z,95.50
2019-03-22T01:25:13.720Z,95.40
2019-03-22T01:27:43.481Z,95.30
2019-03-22T01:30:13.518Z,95.30
2019-03-22T01:32:42.744Z,95.20
2019-03-22T01:35:13.136Z,95.10
2019-03-22T01:37:43.334Z,95.20
2019-03-22T01:40:14.462Z,95.30
2019-03-22T01:42:43.710Z,95.30
2019-03-22T01:45:13.629Z,95.30
2019-03-22T01:47:43.170Z,95.10
2019-03-22T01:50:22.037Z,95.10
2019-03-22T01:52:51.585Z,95.20
2019-03-22T01:55:20.890Z,95.50
2019-03-22T01:57:53.495Z,95.20
2019-03-22T02:00:21.377Z,95.20
2019-03-22T02:02:50.632Z,95.10
2019-03-22T02:05:19.957Z,95.10
2019-03-22T02:07:49.478Z,95.10
2019-03-22T02:10:18.867Z,95.10
2019-03-22T02:12:48.110Z,95.00
2019-03-22T02:15:17.451Z,95.10
2019-03-22T02:17:47.669Z,95.00
2019-03-22T02:20:17.398Z,95.20
2019-03-22T02:22:46.834Z,95.20
2019-03-22T02:25:16.446Z,95.10
2019-03-22T02:27:46.483Z,95.10
2019-03-22T02:30:17.807Z,95.00
2019-03-22T02:32:47.354Z,95.10
2019-03-22T02:35:28.557Z,94.90
2019-03-22T02:37:47.958Z,94.90
2019-03-22T02:40:17.370Z,94.70
2019-03-22T02:42:46.699Z,94.70
2019-03-22T02:45:16.065Z,94.90
2019-03-22T02:47:45.332Z,95.00
2019-03-22T02:50:18.863Z,95.00
2019-03-22T02:52:46.208Z,94.90
2019-03-22T02:55:15.689Z,94.80
2019-03-22T02:57:44.935Z,94.80
2019-03-22T03:00:15.367Z,94.80
2019-03-22T03:02:44.727Z,94.70
2019-03-22T03:05:14.620Z,94.70
2019-03-22T03:07:44.066Z,94.60
2019-03-22T03:10:13.767Z,94.60
2019-03-22T03:12:46.259Z,94.70
2019-03-22T03:15:15.749Z,94.60
2019-03-22T03:17:45.187Z,94.50
2019-03-22T03:20:15.147Z,94.50
2019-03-22T03:22:46.133Z,94.60
2019-03-22T03:25:16.949Z,94.70
2019-03-22T03:27:46.376Z,94.70
2019-03-22T03:30:16.896Z,94.60
2019-03-22T03:32:46.363Z,94.70
2019-03-22T03:35:19.672Z,94.70
2019-03-22T03:37:49.924Z,94.70
2019-03-22T03:40:20.144Z,94.70
2019-03-22T03:42:49.390Z,94.50
2019-03-22T03:45:32.962Z,94.60
2019-03-22T03:48:02.405Z,94.70
2019-03-22T03:50:31.618Z,94.70
2019-03-22T03:53:01.014Z,94.60
2019-03-22T03:55:30.364Z,94.50
2019-03-22T03:57:59.643Z,94.60
2019-03-22T04:00:29.165Z,94.60
2019-03-22T04:02:58.588Z,94.90
2019-03-22T04:05:28.110Z,94.50
2019-03-22T04:07:57.847Z,94.60
2019-03-22T04:10:27.202Z,94.50
2019-03-22T04:12:56.620Z,94.60
2019-03-22T04:15:26.859Z,94.50
2019-03-22T04:17:56.523Z,94.40
2019-03-22T04:20:25.729Z,94.60
2019-03-22T04:22:55.231Z,94.80
2019-03-22T04:25:24.626Z,95.00
2019-03-22T04:27:53.885Z,95.00
2019-03-22T04:30:23.224Z,94.90
2019-03-22T04:32:52.473Z,94.80
2019-03-22T04:35:21.889Z,94.70
2019-03-22T04:37:51.429Z,94.70
2019-03-22T04:40:25.214Z,94.70
2019-03-22T04:42:54.474Z,94.70
2019-03-22T04:45:24.697Z,94.70
2019-03-22T04:48:01.295Z,94.70
2019-03-22T04:50:33.362Z,94.70
2019-03-22T04:53:03.781Z,94.80
2019-03-22T04:55:34.556Z,94.80
2019-03-22T04:58:04.709Z,94.90
2019-03-22T05:00:37.517Z,95.00
2019-03-22T05:03:08.303Z,95.00
2019-03-22T05:05:37.769Z,94.90
2019-03-22T05:08:07.349Z,94.80
2019-03-22T05:10:37.864Z,94.90
2019-03-22T05:13:10.586Z,94.80
2019-03-22T05:15:40.378Z,94.90
2019-03-22T05:18:10.066Z,94.90
2019-03-22T05:20:42.309Z,95.00
2019-03-22T05:23:12.496Z,95.20
2019-03-22T05:25:43.619Z,95.10
2019-03-22T05:28:14.555Z,95.60
2019-03-22T05:31:10.794Z,95.30
2019-03-22T05:33:41.438Z,95.00
2019-03-22T05:36:10.930Z,94.90
2019-03-22T05:38:40.252Z,94.70
2019-03-22T05:41:09.794Z,94.70
2019-03-22T05:43:39.071Z,94.60
2019-03-22T05:46:08.559Z,94.60
2019-03-22T05:48:37.822Z,94.60
2019-03-22T05:51:07.352Z,94.60
2019-03-22T05:53:36.866Z,94.70
2019-03-22T05:56:06.258Z,94.70
2019-03-22T05:58:35.778Z,94.50
2019-03-22T06:01:05.086Z,94.50
2019-03-22T06:03:35.145Z,94.30
2019-03-22T06:06:04.422Z,94.10
2019-03-22T06:08:33.765Z,94.00
2019-03-22T06:11:03.254Z,94.10
2019-03-22T06:13:32.639Z,94.00
2019-03-22T06:16:02.723Z,94.10
2019-03-22T06:18:32.123Z,94.30
2019-03-22T06:21:01.514Z,94.30
2019-03-22T06:23:31.093Z,94.30
2019-03-22T06:26:00.578Z,94.20
2019-03-22T06:28:30.301Z,94.00
2019-03-22T06:31:00.822Z,94.00
2019-03-22T06:33:30.622Z,94.00
2019-03-22T06:35:59.919Z,94.30
2019-03-22T06:38:29.262Z,94.40
2019-03-22T06:40:58.547Z,94.50
2019-03-22T06:43:27.842Z,94.40
2019-03-22T06:45:57.145Z,94.20
2019-03-22T06:48:26.590Z,94.00
2019-03-22T06:50:56.289Z,93.90
2019-03-22T06:53:25.520Z,94.00
2019-03-22T06:55:54.872Z,93.90
2019-03-22T06:58:25.414Z,94.30
2019-03-22T07:00:54.674Z,94.40
2019-03-22T07:03:24.847Z,94.50
2019-03-22T07:05:54.090Z,94.40
2019-03-22T07:08:23.342Z,94.20
2019-03-22T07:10:52.656Z,94.10
2019-03-22T07:13:21.904Z,93.80
2019-03-22T07:15:51.145Z,93.60
2019-03-22T07:18:20.503Z,93.70
2019-03-22T07:20:49.811Z,93.90
2019-03-22T07:23:19.379Z,93.80
2019-03-22T07:25:48.621Z,94.30
2019-03-22T07:28:18.864Z,94.30
2019-03-22T07:30:48.137Z,94.40
2019-03-22T07:33:17.520Z,94.30
2019-03-22T07:35:48.113Z,94.00
2019-03-22T07:38:17.634Z,93.80
2019-03-22T07:40:47.125Z,93.50
2019-03-22T07:43:16.575Z,93.30
2019-03-22T07:45:45.815Z,93.10
2019-03-22T07:48:15.151Z,93.00
2019-03-22T07:50:44.364Z,93.20
2019-03-22T07:53:13.594Z,93.30
2019-03-22T07:55:43.155Z,93.60
2019-03-22T07:58:13.098Z,93.60
2019-03-22T08:00:42.508Z,93.50
2019-03-22T08:03:11.762Z,93.70
2019-03-22T08:05:50.720Z,93.80
2019-03-22T08:08:12.060Z,93.70
2019-03-22T08:10:41.563Z,94.10
2019-03-22T08:13:13.981Z,94.20
2019-03-22T08:15:46.526Z,94.10
2019-03-22T08:18:15.882Z,93.90
2019-03-22T08:20:45.565Z,93.70
2019-03-22T08:23:19.762Z,93.60
2019-03-22T08:25:49.137Z,93.60
2019-03-22T08:28:18.443Z,93.50
2019-03-22T08:30:47.744Z,93.40
2019-03-22T08:33:17.051Z,93.10
2019-03-22T08:35:49.001Z,93.10
2019-03-22T08:38:18.566Z,92.60
2019-03-22T08:40:47.902Z,92.50
2019-03-22T08:43:17.214Z,92.30
2019-03-22T08:45:46.999Z,92.00
2019-03-22T08:48:16.250Z,91.90
2019-03-22T08:50:45.507Z,91.70
2019-03-22T08:53:14.937Z,91.60
2019-03-22T08:55:44.574Z,92.00
2019-03-22T08:58:13.849Z,92.50
2019-03-22T09:00:56.384Z,92.30
2019-03-22T09:03:14.381Z,92.60
2019-03-22T09:05:45.845Z,92.60
2019-03-22T09:08:16.212Z,93.00
2019-03-22T09:10:45.908Z,93.10
2019-03-22T09:13:15.409Z,93.10
2019-03-22T09:15:45.074Z,92.90
2019-03-22T09:18:15.589Z,92.80
2019-03-22T09:20:45.700Z,93.00
2019-03-22T09:23:15.078Z,93.00
2019-03-22T09:25:44.430Z,93.10
2019-03-22T09:28:13.719Z,92.90
2019-03-22T09:30:45.016Z,92.80
2019-03-22T09:33:14.295Z,92.30
2019-03-22T09:35:46.978Z,92.10
2019-03-22T09:38:17.441Z,92.30
2019-03-22T09:40:46.802Z,92.70
2019-03-22T09:43:18.851Z,92.50
2019-03-22T09:45:48.334Z,92.40
2019-03-22T09:48:17.613Z,92.10
2019-03-22T09:50:47.047Z,92.00
2019-03-22T09:53:16.687Z,92.10
2019-03-22T09:55:45.930Z,92.40
2019-03-22T09:58:15.207Z,92.50
2019-03-22T10:00:44.585Z,92.80
2019-03-22T10:03:14.075Z,93.10
2019-03-22T10:05:43.632Z,93.30
2019-03-22T10:08:12.989Z,93.30
2019-03-22T10:10:42.284Z,93.20
2019-03-22T10:13:11.874Z,93.10
2019-03-22T10:15:41.336Z,92.70
2019-03-22T10:18:10.771Z,92.30
2019-03-22T10:20:40.126Z,92.20
2019-03-22T10:23:09.546Z,92.30
2019-03-22T10:25:39.122Z,92.40
2019-03-22T10:28:08.510Z,92.30
2019-03-22T10:30:37.786Z,92.40
2019-03-22T10:33:07.067Z,92.20
2019-03-22T10:35:36.343Z,91.70
2019-03-22T10:38:15.458Z,91.30
2019-03-22T10:40:36.860Z,90.70
2019-03-22T10:43:06.145Z,90.30
2019-03-22T10:45:35.555Z,89.90
2019-03-22T10:48:04.968Z,90.20
2019-03-22T10:50:34.309Z,89.90
2019-03-22T10:53:03.663Z,89.50
2019-03-22T10:55:35.546Z,90.10
2019-03-22T10:58:04.672Z,90.30
2019-03-22T11:00:34.075Z,91.10
2019-03-22T11:03:03.725Z,91.30
2019-03-22T11:05:32.940Z,91.40
2019-03-22T11:08:02.704Z,91.10
2019-03-22T11:10:34.832Z,90.80
2019-03-22T11:13:04.144Z,91.10
2019-03-22T11:15:33.566Z,91.50
2019-03-22T11:18:02.883Z,91.30
2019-03-22T11:20:32.209Z,91.10
2019-03-22T11:23:01.790Z,91.40
2019-03-22T11:25:31.059Z,91.40
2019-03-22T11:28:00.797Z,90.70
2019-03-22T11:30:30.202Z,90.10
2019-03-22T11:32:59.470Z,89.20
2019-03-22T11:35:28.967Z,90.20
2019-03-22T11:37:58.336Z,90.90
2019-03-22T11:40:27.641Z,91.60
2019-03-22T11:42:57.087Z,91.60
2019-03-22T11:45:27.498Z,91.10
2019-03-22T11:47:56.868Z,90.70
2019-03-22T11:50:26.166Z,90.10
2019-03-22T11:52:55.560Z,88.70
2019-03-22T11:55:24.886Z,89.60
2019-03-22T11:57:54.479Z,89.80
2019-03-22T12:00:28.210Z,90.60
2019-03-22T12:02:57.963Z,90.80
2019-03-22T12:05:27.503Z,90.70
2019-03-22T12:07:56.806Z,91.30
2019-03-22T12:10:26.126Z,91.30
2019-03-22T12:12:55.407Z,91.00
2019-03-22T12:15:25.284Z,90.40
2019-03-22T12:17:55.022Z,90.30
2019-03-22T12:20:28.181Z,89.40
2019-03-22T12:22:57.487Z,87.60
2019-03-22T12:25:27.020Z,87.10
2019-03-22T12:27:56.326Z,87.00
2019-03-22T12:30:25.640Z,87.90
2019-03-22T12:32:55.221Z,89.20
2019-03-22T12:35:24.572Z,88.80
2019-03-22T12:37:53.977Z,87.90
2019-03-22T12:40:23.564Z,87.80
2019-03-22T12:42:52.992Z,86.80
2019-03-22T12:45:23.685Z,86.40
2019-03-22T12:47:53.014Z,86.90
2019-03-22T12:50:23.283Z,88.50
2019-03-22T12:52:53.122Z,90.10
2019-03-22T12:55:22.578Z,89.90
2019-03-22T12:57:52.388Z,89.30
2019-03-22T13:00:22.457Z,88.50
2019-03-22T13:02:54.494Z,88.10
2019-03-22T13:05:24.171Z,86.80
2019-03-22T13:07:53.842Z,86.90
2019-03-22T13:10:23.734Z,86.20
2019-03-22T13:12:55.460Z,84.80
2019-03-22T13:15:25.271Z,85.20
2019-03-22T13:17:54.501Z,85.60
2019-03-22T13:20:23.938Z,85.10
2019-03-22T13:22:53.400Z,85.20
2019-03-22T13:25:23.191Z,85.90
2019-03-22T13:27:52.515Z,86.80
2019-03-22T13:30:32.447Z,87.10
2019-03-22T13:33:02.076Z,87.90
2019-03-22T13:35:31.394Z,87.10
2019-03-22T13:38:00.758Z,86.90
2019-03-22T13:40:30.290Z,87.80
2019-03-22T13:42:59.583Z,87.60
2019-03-22T13:45:28.940Z,86.90
2019-03-22T13:47:59.595Z,86.40
2019-03-22T13:50:29.090Z,86.00
2019-03-22T13:52:59.910Z,86.30
2019-03-22T13:55:30.522Z,85.60
2019-03-22T13:58:00.142Z,86.00
2019-03-22T14:00:29.537Z,85.40
2019-03-22T14:03:02.905Z,85.80
2019-03-22T14:05:30.051Z,85.70
2019-03-22T14:07:59.489Z,85.00
2019-03-22T14:10:33.238Z,84.00
2019-03-22T14:13:02.907Z,83.00
2019-03-22T14:15:32.636Z,82.90
2019-03-22T14:18:01.973Z,82.30
2019-03-22T14:20:32.591Z,82.80
2019-03-22T14:23:02.030Z,83.20
2019-03-22T14:25:31.294Z,84.30
2019-03-22T14:28:00.557Z,84.80
2019-03-22T14:30:29.910Z,84.70
2019-03-22T14:32:59.187Z,85.00
2019-03-22T14:35:28.735Z,86.20
2019-03-22T14:37:58.099Z,86.20
2019-03-22T14:40:27.426Z,85.90
2019-03-22T14:42:56.735Z,85.50
2019-03-22T14:45:26.054Z,85.70
2019-03-22T14:47:55.857Z,87.10
2019-03-22T14:50:26.178Z,87.90
2019-03-22T14:52:55.649Z,87.90
2019-03-22T14:55:25.336Z,87.70
2019-03-22T14:57:54.618Z,88.30
2019-03-22T15:00:24.081Z,88.60
2019-03-22T15:02:53.361Z,89.10
2019-03-22T15:05:22.843Z,88.30
2019-03-22T15:07:52.267Z,87.90
2019-03-22T15:10:21.819Z,87.70
2019-03-22T15:12:51.321Z,87.40
2019-03-22T15:15:29.953Z,87.80
2019-03-22T15:18:27.791Z,89.30
2019-03-22T15:21:22.675Z,89.70
2019-03-22T15:24:09.897Z,90.30
2019-03-22T15:26:56.842Z,90.90
2019-03-22T15:29:44.214Z,91.10
2019-03-22T15:32:25.168Z,91.30
2019-03-22T15:35:14.145Z,91.50
2019-03-22T15:38:01.252Z,91.60
2019-03-22T15:40:30.517Z,91.20
2019-03-22T15:42:59.817Z,90.70
2019-03-22T15:45:30.965Z,90.60
2019-03-22T15:48:00.698Z,90.90
2019-03-22T15:50:30.369Z,91.00
2019-03-22T15:53:00.865Z,91.20
2019-03-22T15:55:30.253Z,91.40
2019-03-22T15:57:59.478Z,91.80
2019-03-22T16:00:28.870Z,92.10
2019-03-22T16:02:58.696Z,92.00
2019-03-22T16:05:28.144Z,92.20
2019-03-22T16:07:57.562Z,92.40
2019-03-22T16:10:26.869Z,92.80
2019-03-22T16:12:56.115Z,92.90
2019-03-22T16:15:25.374Z,93.10
2019-03-22T16:17:55.172Z,92.90
2019-03-22T16:20:24.679Z,93.00
2019-03-22T16:22:53.978Z,93.40
2019-03-22T16:25:24.505Z,93.50
2019-03-22T16:27:53.800Z,93.90
2019-03-22T16:30:25.723Z,93.80
2019-03-22T16:32:55.078Z,93.80
2019-03-22T16:35:24.442Z,94.00
2019-03-22T16:37:53.703Z,94.10
2019-03-22T16:40:24.394Z,94.10
2019-03-22T16:42:53.949Z,94.20
2019-03-22T16:45:37.517Z,94.30
2019-03-22T16:48:07.160Z,94.70
2019-03-22T16:50:36.455Z,95.00
2019-03-22T16:53:06.277Z,95.00
2019-03-22T16:55:36.485Z,95.10
2019-03-22T16:58:06.214Z,95.20
2019-03-22T17:00:36.083Z,95.30
2019-03-22T17:03:08.212Z,95.40
2019-03-22T17:05:38.165Z,95.40
2019-03-22T17:08:07.548Z,95.50
2019-03-22T17:10:37.145Z,95.60
2019-03-22T17:13:06.549Z,95.70
2019-03-22T17:15:35.907Z,95.80
2019-03-22T17:18:05.710Z,95.80
2019-03-22T17:20:35.129Z,95.90
2019-03-22T17:23:04.727Z,96.00
2019-03-22T17:25:34.333Z,96.10
2019-03-22T17:28:03.937Z,96.20
2019-03-22T17:30:33.377Z,96.20
2019-03-22T17:33:03.194Z,96.30
2019-03-22T17:35:32.873Z,96.30
2019-03-22T17:38:03.417Z,96.40
2019-03-22T17:40:32.898Z,96.40
2019-03-22T17:43:02.314Z,96.50
2019-03-22T17:45:31.726Z,96.60
2019-03-22T17:48:00.992Z,96.60
2019-03-22T17:50:30.695Z,96.60
2019-03-22T17:53:00.079Z,96.70
2019-03-22T17:55:29.392Z,96.80
2019-03-22T17:57:59.940Z,96.80
2019-03-22T18:00:30.035Z,96.80
2019-03-22T18:02:59.500Z,96.90
2019-03-22T18:05:29.230Z,96.90
2019-03-22T18:07:58.627Z,96.90
2019-03-22T18:10:28.530Z,97.00
2019-03-22T18:12:57.859Z,97.10
2019-03-22T18:15:27.706Z,97.20
2019-03-22T18:17:57.051Z,97.20
2019-03-22T18:20:26.615Z,97.60
2019-03-22T18:22:56.321Z,97.30
2019-03-22T18:25:25.915Z,97.40
2019-03-22T18:27:55.503Z,97.40
2019-03-22T18:30:25.115Z,97.50
2019-03-22T18:32:54.358Z,97.50
2019-03-22T18:35:25.659Z,97.60
2019-03-22T18:37:54.758Z,97.70
2019-03-22T18:40:24.083Z,97.70
2019-03-22T18:42:53.366Z,97.70
2019-03-22T18:45:24.391Z,97.70
2019-03-22T18:47:54.383Z,97.80
2019-03-22T18:50:23.712Z,97.90
2019-03-22T18:52:53.432Z,97.90
2019-03-22T18:55:22.763Z,98.20
2019-03-22T18:57:52.134Z,98.00
2019-03-22T19:00:21.844Z,98.10
2019-03-22T19:02:51.205Z,98.10
2019-03-22T19:05:20.526Z,98.20
2019-03-22T19:07:50.292Z,98.20
2019-03-22T19:10:19.620Z,98.20
2019-03-22T19:12:48.870Z,98.30
2019-03-22T19:15:18.259Z,98.50
2019-03-22T19:17:47.710Z,98.50
2019-03-22T19:20:17.388Z,98.50
2019-03-22T19:22:47.013Z,98.60
2019-03-22T19:25:16.342Z,98.70
2019-03-22T19:27:46.306Z,98.60
2019-03-22T19:30:16.400Z,98.70
2019-03-22T19:32:48.033Z,98.80
2019-03-22T19:35:17.528Z,98.80
2019-03-22T19:37:47.247Z,98.90
2019-03-22T19:40:18.926Z,98.90
2019-03-22T19:42:49.856Z,99.00
2019-03-22T19:45:19.950Z,99.10
2019-03-22T19:47:49.629Z,99.10
2019-03-22T19:50:19.374Z,99.20
2019-03-22T19:52:48.978Z,99.20
2019-03-22T19:55:18.263Z,99.30
2019-03-22T19:57:47.566Z,99.30
2019-03-22T20:00:17.845Z,99.30
2019-03-22T20:02:49.271Z,99.40
2019-03-22T20:05:33.671Z,99.40
2019-03-22T20:08:04.883Z,99.40
2019-03-22T20:10:36.718Z,99.40
2019-03-22T20:13:06.187Z,99.40
2019-03-22T20:15:35.926Z,99.50
2019-03-22T20:18:05.819Z,99.50
2019-03-22T20:20:36.233Z,99.60
2019-03-22T20:23:07.896Z,99.50
2019-03-22T20:25:40.654Z,99.60
2019-03-22T20:28:09.893Z,99.60
2019-03-22T20:30:39.221Z,99.70
2019-03-22T20:33:08.700Z,99.70
2019-03-22T20:35:38.139Z,99.70
2019-03-22T20:38:07.544Z,99.70
2019-03-22T20:40:36.882Z,99.80
2019-03-22T20:43:07.589Z,99.70
2019-03-22T20:45:36.846Z,99.80
2019-03-22T20:48:06.243Z,99.90
2019-03-22T20:50:36.285Z,99.90
2019-03-22T20:53:05.869Z,99.90
2019-03-22T20:55:35.891Z,99.90
2019-03-22T20:58:05.338Z,99.90
2019-03-22T21:00:34.717Z,99.90
2019-03-22T21:03:06.541Z,99.90
2019-03-22T21:05:37.207Z,99.90
2019-03-22T21:08:07.487Z,99.90
2019-03-22T21:10:37.754Z,99.90
2019-03-22T21:13:07.143Z,99.90
2019-03-22T21:15:36.731Z,99.90
2019-03-22T21:18:06.471Z,99.90
2019-03-22T21:20:35.862Z,99.90
2019-03-22T21:23:05.188Z,99.90
2019-03-22T21:25:35.157Z,99.90
2019-03-22T21:28:04.962Z,99.90
2019-03-22T21:30:36.174Z,99.90
2019-03-22T21:33:05.540Z,99.90
2019-03-22T21:35:37.490Z,99.90
2019-03-22T21:38:10.878Z,99.90
2019-03-22T21:40:37.247Z,99.90
2019-03-22T21:43:06.656Z,99.90
2019-03-22T21:45:36.146Z,99.90
2019-03-22T21:48:05.687Z,99.90
2019-03-22T21:50:35.254Z,99.90
2019-03-22T21:53:04.553Z,99.90
2019-03-22T21:55:34.469Z,99.90
2019-03-22T21:58:03.845Z,99.90
2019-03-22T22:00:33.146Z,99.90
2019-03-22T22:03:02.470Z,99.90
2019-03-22T22:05:31.771Z,99.90
2019-03-22T22:08:01.358Z,99.90
2019-03-22T22:10:30.955Z,99.90
2019-03-22T22:13:00.462Z,99.90
2019-03-22T22:15:30.222Z,99.90
2019-03-22T22:17:59.846Z,99.90
2019-03-22T22:20:29.386Z,99.90
2019-03-22T22:22:58.917Z,99.90
2019-03-22T22:25:28.250Z,99.90
2019-03-22T22:27:58.057Z,99.90
2019-03-22T22:30:27.396Z,99.90
2019-03-22T22:32:56.874Z,99.90
2019-03-22T22:35:26.907Z,99.90
2019-03-22T22:37:56.279Z,99.90
2019-03-22T22:40:25.942Z,99.90
2019-03-22T22:42:55.222Z,99.90
2019-03-22T22:45:24.642Z,99.90
2019-03-22T22:47:54.243Z,99.90
2019-03-22T22:50:23.569Z,99.90
2019-03-22T22:52:52.891Z,99.90
2019-03-22T22:55:22.226Z,99.90
2019-03-22T22:57:51.534Z,99.90
2019-03-22T23:00:21.219Z,99.90
2019-03-22T23:02:50.623Z,99.90
2019-03-22T23:05:20.198Z,99.90
2019-03-22T23:07:49.738Z,99.90
2019-03-22T23:10:20.215Z,99.90
2019-03-22T23:12:49.521Z,99.90
2019-03-22T23:15:18.867Z,99.90
2019-03-22T23:17:48.331Z,99.90
2019-03-22T23:20:17.703Z,99.90
2019-03-22T23:22:47.021Z,99.90
2019-03-22T23:25:16.442Z,99.90
2019-03-22T23:27:46.009Z,99.90
2019-03-22T23:30:15.492Z,99.90
2019-03-22T23:32:44.840Z,99.90
2019-03-22T23:35:14.419Z,99.90
2019-03-22T23:37:43.811Z,99.90
2019-03-22T23:40:13.843Z,99.90
2019-03-22T23:42:43.093Z,99.90
2019-03-22T23:45:12.801Z,99.90
2019-03-22T23:47:42.074Z,99.90
2019-03-22T23:50:11.494Z,99.90
2019-03-22T23:52:40.983Z,99.90
2019-03-22T23:55:10.661Z,99.90
2019-03-22T23:57:39.997Z,99.90
